sensor_id;sensor_type;location;lat;lon;timestamp;temperature;humidity
56123;DHT22;42426;46.104;19.656;2022-07-23T00:00:50;640.80;1177.60
56123;DHT22;42426;46.104;19.656;2022-07-23T00:03:22;640.70;1177.60
56123;DHT22;42426;46.104;19.656;2022-07-23T00:05:50;640.70;1177.60
56123;DHT22;42426;46.104;19.656;2022-07-23T00:08:16;640.80;1177.60
56123;DHT22;42426;46.104;19.656;2022-07-23T00:10:42;640.60;1203.20
56123;DHT22;42426;46.104;19.656;2022-07-23T00:13:08;640.70;1177.60
56123;DHT22;42426;46.104;19.656;2022-07-23T00:15:40;640.50;1203.20
56123;DHT22;42426;46.104;19.656;2022-07-23T00:18:05;640.40;1203.20
56123;DHT22;42426;46.104;19.656;2022-07-23T00:20:31;640.70;1177.60
56123;DHT22;42426;46.104;19.656;2022-07-23T00:22:59;640.40;1177.60
56123;DHT22;42426;46.104;19.656;2022-07-23T00:28:28;640.30;1203.20
56123;DHT22;42426;46.104;19.656;2022-07-23T00:30:54;640.30;1203.20
56123;DHT22;42426;46.104;19.656;2022-07-23T00:33:26;640.40;1203.20
56123;DHT22;42426;46.104;19.656;2022-07-23T00:35:54;640.30;1203.20
56123;DHT22;42426;46.104;19.656;2022-07-23T00:38:26;640.30;1203.20
56123;DHT22;42426;46.104;19.656;2022-07-23T00:40:51;640.10;1203.20
56123;DHT22;42426;46.104;19.656;2022-07-23T00:43:25;640.30;1203.20
56123;DHT22;42426;46.104;19.656;2022-07-23T00:45:51;640.10;1203.20
56123;DHT22;42426;46.104;19.656;2022-07-23T00:48:16;640.10;1203.20
56123;DHT22;42426;46.104;19.656;2022-07-23T00:50:43;640.00;1203.20
56123;DHT22;42426;46.104;19.656;2022-07-23T00:53:09;640.00;1228.80
56123;DHT22;42426;46.104;19.656;2022-07-23T00:55:35;615.30;1228.80
56123;DHT22;42426;46.104;19.656;2022-07-23T00:58:02;615.30;1228.80
56123;DHT22;42426;46.104;19.656;2022-07-23T01:00:34;615.20;1228.80
56123;DHT22;42426;46.104;19.656;2022-07-23T01:03:02;615.30;1228.80
56123;DHT22;42426;46.104;19.656;2022-07-23T01:05:28;615.30;1228.80
56123;DHT22;42426;46.104;19.656;2022-07-23T01:07:54;615.20;1203.20
56123;DHT22;42426;46.104;19.656;2022-07-23T01:10:20;615.10;1203.20
56123;DHT22;42426;46.104;19.656;2022-07-23T01:13:11;615.00;1203.20
56123;DHT22;42426;46.104;19.656;2022-07-23T01:15:38;615.10;1203.20
56123;DHT22;42426;46.104;19.656;2022-07-23T01:18:06;615.20;1228.80
56123;DHT22;42426;46.104;19.656;2022-07-23T01:35:10;615.30;1203.20
56123;DHT22;42426;46.104;19.656;2022-07-23T01:37:36;615.00;1228.80
56123;DHT22;42426;46.104;19.656;2022-07-23T01:40:03;614.90;1254.40
56123;DHT22;42426;46.104;19.656;2022-07-23T01:42:29;614.80;1228.80
56123;DHT22;42426;46.104;19.656;2022-07-23T01:44:55;614.80;1228.80
56123;DHT22;42426;46.104;19.656;2022-07-23T01:47:21;614.70;1228.80
56123;DHT22;42426;46.104;19.656;2022-07-23T01:49:47;614.80;1228.80
56123;DHT22;42426;46.104;19.656;2022-07-23T01:52:13;614.70;1254.40
56123;DHT22;42426;46.104;19.656;2022-07-23T01:54:39;614.70;1254.40
56123;DHT22;42426;46.104;19.656;2022-07-23T02:11:44;614.90;1228.80
56123;DHT22;42426;46.104;19.656;2022-07-23T02:14:09;614.60;1254.40
56123;DHT22;42426;46.104;19.656;2022-07-23T02:16:35;614.60;1254.40
56123;DHT22;42426;46.104;19.656;2022-07-23T02:19:02;614.50;1280.00
56123;DHT22;42426;46.104;19.656;2022-07-23T02:21:28;614.50;1280.00
56123;DHT22;42426;46.104;19.656;2022-07-23T02:23:53;614.40;1280.00
56123;DHT22;42426;46.104;19.656;2022-07-23T02:26:19;614.40;1280.00
56123;DHT22;42426;46.104;19.656;2022-07-23T02:28:45;614.40;1280.00
56123;DHT22;42426;46.104;19.656;2022-07-23T02:31:11;614.40;1280.00
56123;DHT22;42426;46.104;19.656;2022-07-23T02:33:36;589.70;1280.00
56123;DHT22;42426;46.104;19.656;2022-07-23T02:36:02;589.70;1280.00
56123;DHT22;42426;46.104;19.656;2022-07-23T02:38:28;589.70;1280.00
56123;DHT22;42426;46.104;19.656;2022-07-23T02:40:54;589.70;1280.00
56123;DHT22;42426;46.104;19.656;2022-07-23T02:43:19;589.70;1280.00
56123;DHT22;42426;46.104;19.656;2022-07-23T02:45:45;589.60;1305.60
56123;DHT22;42426;46.104;19.656;2022-07-23T02:48:11;589.60;1305.60
56123;DHT22;42426;46.104;19.656;2022-07-23T02:50:38;589.60;1280.00
56123;DHT22;42426;46.104;19.656;2022-07-23T02:53:04;589.60;1280.00
56123;DHT22;42426;46.104;19.656;2022-07-23T02:55:30;589.60;1305.60
56123;DHT22;42426;46.104;19.656;2022-07-23T02:57:56;589.60;1305.60
56123;DHT22;42426;46.104;19.656;2022-07-23T03:00:22;589.50;1331.20
56123;DHT22;42426;46.104;19.656;2022-07-23T03:02:48;589.50;1331.20
56123;DHT22;42426;46.104;19.656;2022-07-23T03:24:43;589.60;1331.20
56123;DHT22;42426;46.104;19.656;2022-07-23T03:27:25;589.30;1331.20
56123;DHT22;42426;46.104;19.656;2022-07-23T03:29:56;589.20;1356.80
56123;DHT22;42426;46.104;19.656;2022-07-23T03:32:23;589.10;1382.40
56123;DHT22;42426;46.104;19.656;2022-07-23T03:34:49;589.10;1382.40
56123;DHT22;42426;46.104;19.656;2022-07-23T03:37:16;589.00;1408.00
56123;DHT22;42426;46.104;19.656;2022-07-23T03:39:42;588.90;1408.00
56123;DHT22;42426;46.104;19.656;2022-07-23T03:42:07;588.80;1433.60
56123;DHT22;42426;46.104;19.656;2022-07-23T03:44:41;588.90;1433.60
56123;DHT22;42426;46.104;19.656;2022-07-23T03:47:06;588.90;1433.60
56123;DHT22;42426;46.104;19.656;2022-07-23T03:49:33;588.90;1433.60
56123;DHT22;42426;46.104;19.656;2022-07-23T03:51:59;589.00;1433.60
56123;DHT22;42426;46.104;19.656;2022-07-23T03:54:25;589.00;1433.60
56123;DHT22;42426;46.104;19.656;2022-07-23T03:56:50;589.00;1433.60
56123;DHT22;42426;46.104;19.656;2022-07-23T03:59:16;589.10;1408.00
56123;DHT22;42426;46.104;19.656;2022-07-23T04:01:42;589.10;1408.00
56123;DHT22;42426;46.104;19.656;2022-07-23T04:04:08;589.10;1408.00
56123;DHT22;42426;46.104;19.656;2022-07-23T04:06:35;589.10;1433.60
56123;DHT22;42426;46.104;19.656;2022-07-23T04:09:01;589.10;1433.60
56123;DHT22;42426;46.104;19.656;2022-07-23T04:11:27;589.10;1433.60
56123;DHT22;42426;46.104;19.656;2022-07-23T04:13:52;589.10;1433.60
56123;DHT22;42426;46.104;19.656;2022-07-23T04:16:18;589.10;1433.60
56123;DHT22;42426;46.104;19.656;2022-07-23T04:18:44;589.10;1433.60
56123;DHT22;42426;46.104;19.656;2022-07-23T04:21:10;589.10;1433.60
56123;DHT22;42426;46.104;19.656;2022-07-23T04:23:35;589.20;1433.60
56123;DHT22;42426;46.104;19.656;2022-07-23T04:26:03;589.30;1433.60
56123;DHT22;42426;46.104;19.656;2022-07-23T04:28:29;589.20;1433.60
56123;DHT22;42426;46.104;19.656;2022-07-23T04:30:57;589.20;1433.60
56123;DHT22;42426;46.104;19.656;2022-07-23T04:33:23;589.20;1433.60
56123;DHT22;42426;46.104;19.656;2022-07-23T04:35:49;589.10;1459.20
56123;DHT22;42426;46.104;19.656;2022-07-23T04:38:14;589.10;1459.20
56123;DHT22;42426;46.104;19.656;2022-07-23T04:40:40;589.20;1459.20
56123;DHT22;42426;46.104;19.656;2022-07-23T04:43:06;589.20;1459.20
56123;DHT22;42426;46.104;19.656;2022-07-23T04:45:32;589.30;1459.20
56123;DHT22;42426;46.104;19.656;2022-07-23T04:50:45;589.50;1459.20
56123;DHT22;42426;46.104;19.656;2022-07-23T04:53:11;589.60;1433.60
56123;DHT22;42426;46.104;19.656;2022-07-23T04:55:37;589.60;1433.60
56123;DHT22;42426;46.104;19.656;2022-07-23T04:58:02;589.60;1408.00
56123;DHT22;42426;46.104;19.656;2022-07-23T05:00:28;614.40;1382.40
56123;DHT22;42426;46.104;19.656;2022-07-23T05:02:54;614.50;1382.40
56123;DHT22;42426;46.104;19.656;2022-07-23T05:05:20;614.60;1356.80
56123;DHT22;42426;46.104;19.656;2022-07-23T05:07:45;614.70;1356.80
56123;DHT22;42426;46.104;19.656;2022-07-23T05:10:11;614.80;1331.20
56123;DHT22;42426;46.104;19.656;2022-07-23T05:12:37;614.90;1356.80
56123;DHT22;42426;46.104;19.656;2022-07-23T05:15:06;615.00;1356.80
56123;DHT22;42426;46.104;19.656;2022-07-23T05:17:32;615.00;1382.40
56123;DHT22;42426;46.104;19.656;2022-07-23T05:19:58;615.20;1356.80
56123;DHT22;42426;46.104;19.656;2022-07-23T05:22:23;615.30;1331.20
56123;DHT22;42426;46.104;19.656;2022-07-23T05:24:49;615.30;1331.20
56123;DHT22;42426;46.104;19.656;2022-07-23T05:27:15;640.40;1331.20
56123;DHT22;42426;46.104;19.656;2022-07-23T05:29:41;640.70;1280.00
56123;DHT22;42426;46.104;19.656;2022-07-23T05:32:06;640.70;1254.40
56123;DHT22;42426;46.104;19.656;2022-07-23T05:34:32;640.70;1280.00
56123;DHT22;42426;46.104;19.656;2022-07-23T05:36:58;640.70;1280.00
56123;DHT22;42426;46.104;19.656;2022-07-23T05:39:24;640.80;1280.00
56123;DHT22;42426;46.104;19.656;2022-07-23T05:42:04;665.60;1305.60
56123;DHT22;42426;46.104;19.656;2022-07-23T05:59:30;691.50;1152.00
56123;DHT22;42426;46.104;19.656;2022-07-23T06:11:41;692.10;1075.20
56123;DHT22;42426;46.104;19.656;2022-07-23T06:14:07;691.90;1126.40
56123;DHT22;42426;46.104;19.656;2022-07-23T06:16:32;691.90;1100.80
56123;DHT22;42426;46.104;19.656;2022-07-23T06:18:58;692.00;1075.20
56123;DHT22;42426;46.104;19.656;2022-07-23T06:21:26;692.00;1024.00
56123;DHT22;42426;46.104;19.656;2022-07-23T06:23:52;692.10;1152.00
56123;DHT22;42426;46.104;19.656;2022-07-23T06:33:36;717.40;998.40
56123;DHT22;42426;46.104;19.656;2022-07-23T06:36:02;717.40;972.80
56123;DHT22;42426;46.104;19.656;2022-07-23T06:38:28;717.40;972.80
56123;DHT22;42426;46.104;19.656;2022-07-23T06:40:53;717.40;998.40
56123;DHT22;42426;46.104;19.656;2022-07-23T06:43:19;717.50;998.40
56123;DHT22;42426;46.104;19.656;2022-07-23T06:45:45;717.60;1024.00
56123;DHT22;42426;46.104;19.656;2022-07-23T06:48:10;742.60;921.60
56123;DHT22;42426;46.104;19.656;2022-07-23T06:50:36;742.40;921.60
56123;DHT22;42426;46.104;19.656;2022-07-23T06:53:02;742.40;972.80
56123;DHT22;42426;46.104;19.656;2022-07-23T06:55:28;742.50;998.40
56123;DHT22;42426;46.104;19.656;2022-07-23T06:57:53;742.50;947.20
56123;DHT22;42426;46.104;19.656;2022-07-23T07:00:19;742.70;947.20
56123;DHT22;42426;46.104;19.656;2022-07-23T07:02:45;742.90;947.20
56123;DHT22;42426;46.104;19.656;2022-07-23T07:05:10;743.00;921.60
56123;DHT22;42426;46.104;19.656;2022-07-23T07:07:36;743.10;972.80
56123;DHT22;42426;46.104;19.656;2022-07-23T07:10:05;743.30;947.20
56123;DHT22;42426;46.104;19.656;2022-07-23T07:12:31;768.10;972.80
56123;DHT22;42426;46.104;19.656;2022-07-23T07:14:57;768.30;921.60
56123;DHT22;42426;46.104;19.656;2022-07-23T07:17:23;768.20;921.60
56123;DHT22;42426;46.104;19.656;2022-07-23T07:19:49;768.30;896.00
56123;DHT22;42426;46.104;19.656;2022-07-23T07:22:14;768.40;921.60
56123;DHT22;42426;46.104;19.656;2022-07-23T07:24:40;768.50;947.20
56123;DHT22;42426;46.104;19.656;2022-07-23T07:39:16;794.20;870.40
56123;DHT22;42426;46.104;19.656;2022-07-23T07:41:42;793.90;947.20
56123;DHT22;42426;46.104;19.656;2022-07-23T07:44:08;794.00;870.40
56123;DHT22;42426;46.104;19.656;2022-07-23T07:46:34;794.10;896.00
56123;DHT22;42426;46.104;19.656;2022-07-23T07:51:26;794.50;870.40
56123;DHT22;42426;46.104;19.656;2022-07-23T08:32:59;845.40;793.60
56123;DHT22;42426;46.104;19.656;2022-07-23T08:35:33;845.30;819.20
56123;DHT22;42426;46.104;19.656;2022-07-23T08:38:05;845.10;870.40
56123;DHT22;42426;46.104;19.656;2022-07-23T08:40:33;845.20;768.00
56123;DHT22;42426;46.104;19.656;2022-07-23T08:42:59;845.30;768.00
56123;DHT22;42426;46.104;19.656;2022-07-23T08:45:26;845.30;742.40
56123;DHT22;42426;46.104;19.656;2022-07-23T08:47:57;845.40;742.40
56123;DHT22;42426;46.104;19.656;2022-07-23T08:50:26;845.50;793.60
56123;DHT22;42426;46.104;19.656;2022-07-23T08:52:52;845.50;768.00
56123;DHT22;42426;46.104;19.656;2022-07-23T08:55:20;845.50;768.00
56123;DHT22;42426;46.104;19.656;2022-07-23T08:57:49;845.60;742.40
56123;DHT22;42426;46.104;19.656;2022-07-23T09:30:26;871.20;665.60
56123;DHT22;42426;46.104;19.656;2022-07-23T09:33:12;871.20;614.40
56123;DHT22;42426;46.104;19.656;2022-07-23T09:35:52;871.30;614.40
56123;DHT22;42426;46.104;19.656;2022-07-23T09:38:20;871.10;716.80
56123;DHT22;42426;46.104;19.656;2022-07-23T09:40:46;871.00;665.60
56123;DHT22;42426;46.104;19.656;2022-07-23T09:43:13;871.30;691.20
56123;DHT22;42426;46.104;19.656;2022-07-23T09:45:51;871.20;716.80
56123;DHT22;42426;46.104;19.656;2022-07-23T09:48:17;871.30;640.00
56123;DHT22;42426;46.104;19.656;2022-07-23T09:50:44;871.30;665.60
56123;DHT22;42426;46.104;19.656;2022-07-23T09:53:24;896.00;640.00
56123;DHT22;42426;46.104;19.656;2022-07-23T09:55:51;896.10;640.00
56123;DHT22;42426;46.104;19.656;2022-07-23T09:58:21;896.10;640.00
56123;DHT22;42426;46.104;19.656;2022-07-23T10:00:47;896.30;665.60
56123;DHT22;42426;46.104;19.656;2022-07-23T10:03:15;871.30;640.00
56123;DHT22;42426;46.104;19.656;2022-07-23T10:05:43;871.20;640.00
56123;DHT22;42426;46.104;19.656;2022-07-23T10:08:11;871.30;665.60
56123;DHT22;42426;46.104;19.656;2022-07-23T10:10:39;896.30;563.20
56123;DHT22;42426;46.104;19.656;2022-07-23T10:13:05;896.50;614.40
56123;DHT22;42426;46.104;19.656;2022-07-23T10:15:54;896.40;614.40
56123;DHT22;42426;46.104;19.656;2022-07-23T10:18:20;896.50;588.80
56123;DHT22;42426;46.104;19.656;2022-07-23T10:20:48;896.80;614.40
56123;DHT22;42426;46.104;19.656;2022-07-23T10:26:30;896.60;665.60
56123;DHT22;42426;46.104;19.656;2022-07-23T10:44:45;921.90;614.40
56123;DHT22;42426;46.104;19.656;2022-07-23T10:47:21;921.90;614.40
56123;DHT22;42426;46.104;19.656;2022-07-23T10:50:16;921.80;614.40
56123;DHT22;42426;46.104;19.656;2022-07-23T10:58:04;921.80;614.40
56123;DHT22;42426;46.104;19.656;2022-07-23T11:00:33;921.90;588.80
56123;DHT22;42426;46.104;19.656;2022-07-23T11:03:33;921.90;588.80
56123;DHT22;42426;46.104;19.656;2022-07-23T11:06:02;921.90;563.20
56123;DHT22;42426;46.104;19.656;2022-07-23T11:08:28;922.00;588.80
56123;DHT22;42426;46.104;19.656;2022-07-23T11:13:31;922.30;563.20
56123;DHT22;42426;46.104;19.656;2022-07-23T11:18:56;922.30;563.20
56123;DHT22;42426;46.104;19.656;2022-07-23T12:02:00;947.50;512.00
56123;DHT22;42426;46.104;19.656;2022-07-23T12:04:44;947.40;563.20
56123;DHT22;42426;46.104;19.656;2022-07-23T12:07:34;947.20;563.20
56123;DHT22;42426;46.104;19.656;2022-07-23T12:10:14;947.20;614.40
56123;DHT22;42426;46.104;19.656;2022-07-23T12:12:43;947.20;563.20
56123;DHT22;42426;46.104;19.656;2022-07-23T12:15:11;947.50;537.60
56123;DHT22;42426;46.104;19.656;2022-07-23T12:17:38;947.50;537.60
56123;DHT22;42426;46.104;19.656;2022-07-23T12:20:06;947.70;512.00
56123;DHT22;42426;46.104;19.656;2022-07-23T12:22:41;947.80;512.00
56123;DHT22;42426;46.104;19.656;2022-07-23T12:25:11;947.80;512.00
56123;DHT22;42426;46.104;19.656;2022-07-23T12:27:37;947.90;512.00
56123;DHT22;42426;46.104;19.656;2022-07-23T12:30:28;947.90;486.40
56123;DHT22;42426;46.104;19.656;2022-07-23T12:32:55;948.00;486.40
56123;DHT22;42426;46.104;19.656;2022-07-23T12:35:23;948.00;486.40
56123;DHT22;42426;46.104;19.656;2022-07-23T12:37:51;973.00;512.00
56123;DHT22;42426;46.104;19.656;2022-07-23T12:40:22;948.10;460.80
56123;DHT22;42426;46.104;19.656;2022-07-23T12:42:50;972.80;512.00
56123;DHT22;42426;46.104;19.656;2022-07-23T12:45:17;948.10;512.00
56123;DHT22;42426;46.104;19.656;2022-07-23T12:48:03;948.10;486.40
56123;DHT22;42426;46.104;19.656;2022-07-23T12:50:33;948.00;563.20
56123;DHT22;42426;46.104;19.656;2022-07-23T12:53:26;948.00;486.40
56123;DHT22;42426;46.104;19.656;2022-07-23T12:58:25;947.80;537.60
56123;DHT22;42426;46.104;19.656;2022-07-23T13:05:54;948.00;486.40
56123;DHT22;42426;46.104;19.656;2022-07-23T13:08:21;947.90;512.00
56123;DHT22;42426;46.104;19.656;2022-07-23T13:10:47;948.00;460.80
56123;DHT22;42426;46.104;19.656;2022-07-23T13:13:14;948.00;460.80
56123;DHT22;42426;46.104;19.656;2022-07-23T13:15:40;948.10;486.40
56123;DHT22;42426;46.104;19.656;2022-07-23T13:18:05;948.10;486.40
56123;DHT22;42426;46.104;19.656;2022-07-23T13:20:31;972.80;486.40
56123;DHT22;42426;46.104;19.656;2022-07-23T13:22:59;972.80;486.40
56123;DHT22;42426;46.104;19.656;2022-07-23T13:25:26;972.80;512.00
56123;DHT22;42426;46.104;19.656;2022-07-23T13:27:51;972.80;460.80
56123;DHT22;42426;46.104;19.656;2022-07-23T13:30:17;972.80;512.00
56123;DHT22;42426;46.104;19.656;2022-07-23T13:32:43;948.10;460.80
56123;DHT22;42426;46.104;19.656;2022-07-23T13:35:09;972.80;460.80
56123;DHT22;42426;46.104;19.656;2022-07-23T13:37:35;973.10;486.40
56123;DHT22;42426;46.104;19.656;2022-07-23T13:40:01;973.10;486.40
56123;DHT22;42426;46.104;19.656;2022-07-23T13:42:28;973.20;512.00
56123;DHT22;42426;46.104;19.656;2022-07-23T13:44:53;973.20;460.80
56123;DHT22;42426;46.104;19.656;2022-07-23T13:47:19;973.60;486.40
56123;DHT22;42426;46.104;19.656;2022-07-23T13:49:45;973.20;537.60
56123;DHT22;42426;46.104;19.656;2022-07-23T13:52:11;973.20;486.40
56123;DHT22;42426;46.104;19.656;2022-07-23T13:54:37;973.40;460.80
56123;DHT22;42426;46.104;19.656;2022-07-23T13:57:03;973.40;435.20
56123;DHT22;42426;46.104;19.656;2022-07-23T13:59:29;973.50;512.00
56123;DHT22;42426;46.104;19.656;2022-07-23T14:01:55;973.60;460.80
56123;DHT22;42426;46.104;19.656;2022-07-23T14:04:21;973.70;460.80
56123;DHT22;42426;46.104;19.656;2022-07-23T14:06:47;973.60;460.80
56123;DHT22;42426;46.104;19.656;2022-07-23T14:09:13;973.60;486.40
56123;DHT22;42426;46.104;19.656;2022-07-23T14:11:39;973.20;486.40
56123;DHT22;42426;46.104;19.656;2022-07-23T14:14:05;973.70;460.80
56123;DHT22;42426;46.104;19.656;2022-07-23T14:16:30;973.50;537.60
56123;DHT22;42426;46.104;19.656;2022-07-23T14:18:56;973.50;512.00
56123;DHT22;42426;46.104;19.656;2022-07-23T14:21:22;973.60;486.40
56123;DHT22;42426;46.104;19.656;2022-07-23T14:23:48;998.40;537.60
56123;DHT22;42426;46.104;19.656;2022-07-23T14:26:13;973.70;460.80
56123;DHT22;42426;46.104;19.656;2022-07-23T14:28:39;998.60;435.20
56123;DHT22;42426;46.104;19.656;2022-07-23T14:31:05;998.70;435.20
56123;DHT22;42426;46.104;19.656;2022-07-23T14:33:31;998.80;486.40
56123;DHT22;42426;46.104;19.656;2022-07-23T14:35:57;998.90;460.80
56123;DHT22;42426;46.104;19.656;2022-07-23T14:38:24;999.00;460.80
56123;DHT22;42426;46.104;19.656;2022-07-23T14:40:50;999.00;460.80
56123;DHT22;42426;46.104;19.656;2022-07-23T14:43:16;998.80;486.40
56123;DHT22;42426;46.104;19.656;2022-07-23T14:45:42;998.80;486.40
56123;DHT22;42426;46.104;19.656;2022-07-23T14:48:07;999.00;435.20
56123;DHT22;42426;46.104;19.656;2022-07-23T14:50:33;999.00;435.20
56123;DHT22;42426;46.104;19.656;2022-07-23T14:52:59;999.30;409.60
56123;DHT22;42426;46.104;19.656;2022-07-23T14:55:25;999.30;409.60
56123;DHT22;42426;46.104;19.656;2022-07-23T14:57:51;999.20;435.20
56123;DHT22;42426;46.104;19.656;2022-07-23T15:00:17;999.10;460.80
56123;DHT22;42426;46.104;19.656;2022-07-23T15:02:42;999.20;409.60
56123;DHT22;42426;46.104;19.656;2022-07-23T15:05:09;999.30;435.20
56123;DHT22;42426;46.104;19.656;2022-07-23T15:07:34;1024.00;435.20
56123;DHT22;42426;46.104;19.656;2022-07-23T15:10:00;1024.10;435.20
56123;DHT22;42426;46.104;19.656;2022-07-23T15:12:26;1024.30;409.60
56123;DHT22;42426;46.104;19.656;2022-07-23T15:14:52;1024.40;435.20
56123;DHT22;42426;46.104;19.656;2022-07-23T15:17:18;1024.50;384.00
56123;DHT22;42426;46.104;19.656;2022-07-23T15:19:43;1024.50;384.00
56123;DHT22;42426;46.104;19.656;2022-07-23T15:22:09;1024.40;409.60
56123;DHT22;42426;46.104;19.656;2022-07-23T15:24:35;1024.30;435.20
56123;DHT22;42426;46.104;19.656;2022-07-23T15:27:01;1024.40;435.20
56123;DHT22;42426;46.104;19.656;2022-07-23T15:29:27;1024.40;435.20
56123;DHT22;42426;46.104;19.656;2022-07-23T15:31:52;1024.40;460.80
56123;DHT22;42426;46.104;19.656;2022-07-23T15:34:18;1024.70;409.60
56123;DHT22;42426;46.104;19.656;2022-07-23T15:36:44;1024.90;409.60
56123;DHT22;42426;46.104;19.656;2022-07-23T15:39:10;1049.80;409.60
56123;DHT22;42426;46.104;19.656;2022-07-23T15:41:36;1049.80;384.00
56123;DHT22;42426;46.104;19.656;2022-07-23T15:44:02;1050.10;409.60
56123;DHT22;42426;46.104;19.656;2022-07-23T15:46:28;1050.30;409.60
56123;DHT22;42426;46.104;19.656;2022-07-23T15:48:54;1050.50;384.00
56123;DHT22;42426;46.104;19.656;2022-07-23T15:51:19;1075.50;384.00
56123;DHT22;42426;46.104;19.656;2022-07-23T15:53:45;1075.90;358.40
56123;DHT22;42426;46.104;19.656;2022-07-23T15:56:11;1076.00;384.00
56123;DHT22;42426;46.104;19.656;2022-07-23T15:58:38;1101.00;384.00
56123;DHT22;42426;46.104;19.656;2022-07-23T16:01:04;1101.20;384.00
56123;DHT22;42426;46.104;19.656;2022-07-23T16:03:35;1101.40;384.00
56123;DHT22;42426;46.104;19.656;2022-07-23T16:06:03;1101.50;384.00
56123;DHT22;42426;46.104;19.656;2022-07-23T16:08:29;1126.50;409.60
56123;DHT22;42426;46.104;19.656;2022-07-23T16:10:55;1126.50;409.60
56123;DHT22;42426;46.104;19.656;2022-07-23T16:13:25;1126.80;409.60
56123;DHT22;42426;46.104;19.656;2022-07-23T16:15:51;1126.90;409.60
56123;DHT22;42426;46.104;19.656;2022-07-23T16:18:19;1126.90;409.60
56123;DHT22;42426;46.104;19.656;2022-07-23T16:20:48;1126.70;409.60
56123;DHT22;42426;46.104;19.656;2022-07-23T16:23:15;1126.70;409.60
56123;DHT22;42426;46.104;19.656;2022-07-23T16:25:41;1126.70;409.60
56123;DHT22;42426;46.104;19.656;2022-07-23T16:28:07;1126.50;409.60
56123;DHT22;42426;46.104;19.656;2022-07-23T16:30:33;1126.40;409.60
56123;DHT22;42426;46.104;19.656;2022-07-23T16:33:00;1101.70;384.00
56123;DHT22;42426;46.104;19.656;2022-07-23T16:35:26;1101.60;384.00
56123;DHT22;42426;46.104;19.656;2022-07-23T16:37:52;1101.30;384.00
56123;DHT22;42426;46.104;19.656;2022-07-23T16:40:18;1100.90;384.00
56123;DHT22;42426;46.104;19.656;2022-07-23T16:42:43;1100.90;384.00
56123;DHT22;42426;46.104;19.656;2022-07-23T16:45:10;1100.80;384.00
56123;DHT22;42426;46.104;19.656;2022-07-23T16:47:37;1101.00;384.00
56123;DHT22;42426;46.104;19.656;2022-07-23T16:50:05;1100.90;384.00
56123;DHT22;42426;46.104;19.656;2022-07-23T16:52:31;1076.00;384.00
56123;DHT22;42426;46.104;19.656;2022-07-23T16:54:57;1076.00;358.40
56123;DHT22;42426;46.104;19.656;2022-07-23T16:57:23;1100.80;409.60
56123;DHT22;42426;46.104;19.656;2022-07-23T16:59:49;1076.00;384.00
56123;DHT22;42426;46.104;19.656;2022-07-23T17:02:14;1075.50;435.20
56123;DHT22;42426;46.104;19.656;2022-07-23T17:04:41;1075.50;409.60
56123;DHT22;42426;46.104;19.656;2022-07-23T17:07:07;1050.50;435.20
56123;DHT22;42426;46.104;19.656;2022-07-23T17:09:33;1049.90;460.80
56123;DHT22;42426;46.104;19.656;2022-07-23T17:12:01;1024.90;435.20
56123;DHT22;42426;46.104;19.656;2022-07-23T17:14:27;1024.60;460.80
56123;DHT22;42426;46.104;19.656;2022-07-23T17:16:53;1024.50;460.80
56123;DHT22;42426;46.104;19.656;2022-07-23T17:19:19;999.30;486.40
56123;DHT22;42426;46.104;19.656;2022-07-23T17:21:45;998.70;537.60
56123;DHT22;42426;46.104;19.656;2022-07-23T17:24:11;973.60;563.20
56123;DHT22;42426;46.104;19.656;2022-07-23T17:26:38;973.50;588.80
56123;DHT22;42426;46.104;19.656;2022-07-23T17:29:03;973.10;614.40
56123;DHT22;42426;46.104;19.656;2022-07-23T17:31:29;948.10;588.80
56123;DHT22;42426;46.104;19.656;2022-07-23T17:38:48;947.90;614.40
56123;DHT22;42426;46.104;19.656;2022-07-23T17:41:15;947.60;614.40
56123;DHT22;42426;46.104;19.656;2022-07-23T17:43:41;947.50;640.00
56123;DHT22;42426;46.104;19.656;2022-07-23T17:46:06;947.20;640.00
56123;DHT22;42426;46.104;19.656;2022-07-23T17:48:32;947.20;665.60
56123;DHT22;42426;46.104;19.656;2022-07-23T17:50:58;922.40;665.60
56123;DHT22;42426;46.104;19.656;2022-07-23T17:53:24;922.50;665.60
56123;DHT22;42426;46.104;19.656;2022-07-23T17:55:52;922.40;665.60
56123;DHT22;42426;46.104;19.656;2022-07-23T17:58:18;922.10;665.60
56123;DHT22;42426;46.104;19.656;2022-07-23T18:00:44;922.10;691.20
56123;DHT22;42426;46.104;19.656;2022-07-23T18:03:10;921.80;716.80
56123;DHT22;42426;46.104;19.656;2022-07-23T18:05:36;921.90;742.40
56123;DHT22;42426;46.104;19.656;2022-07-23T18:10:30;921.70;742.40
56123;DHT22;42426;46.104;19.656;2022-07-23T18:12:57;896.90;742.40
56123;DHT22;42426;46.104;19.656;2022-07-23T18:15:23;896.70;716.80
56123;DHT22;42426;46.104;19.656;2022-07-23T18:17:49;896.60;768.00
56123;DHT22;42426;46.104;19.656;2022-07-23T18:20:14;896.50;768.00
56123;DHT22;42426;46.104;19.656;2022-07-23T18:22:40;896.20;768.00
56123;DHT22;42426;46.104;19.656;2022-07-23T18:25:08;896.10;793.60
56123;DHT22;42426;46.104;19.656;2022-07-23T18:34:53;896.10;793.60
56123;DHT22;42426;46.104;19.656;2022-07-23T18:37:19;871.10;768.00
56123;DHT22;42426;46.104;19.656;2022-07-23T18:39:45;871.00;793.60
56123;DHT22;42426;46.104;19.656;2022-07-23T18:42:11;870.80;793.60
56123;DHT22;42426;46.104;19.656;2022-07-23T18:44:37;870.70;793.60
56123;DHT22;42426;46.104;19.656;2022-07-23T18:47:03;870.70;793.60
56123;DHT22;42426;46.104;19.656;2022-07-23T18:49:29;870.60;819.20
56123;DHT22;42426;46.104;19.656;2022-07-23T18:51:55;870.50;819.20
56123;DHT22;42426;46.104;19.656;2022-07-23T18:54:22;870.40;793.60
56123;DHT22;42426;46.104;19.656;2022-07-23T18:56:48;870.40;819.20
56123;DHT22;42426;46.104;19.656;2022-07-23T18:59:14;845.70;819.20
56123;DHT22;42426;46.104;19.656;2022-07-23T19:01:40;845.60;819.20
56123;DHT22;42426;46.104;19.656;2022-07-23T19:04:07;845.50;844.80